Athens, TN

10:36 AM EST on December 18, 2014 (GMT -0500)
Lovell | Change Station
CLOSE
Current Station
Airport
Location: Chattanooga,
Elevation: 689 ft
Nearby Weather Stations

Elev 689 ft 35.04 °N, 85.20 °W | Updated 43 minutes ago

Mostly Cloudy
Mostly Cloudy
39 °F
Feels Like 35 °F
N
6
Wind Variable Wind from North

Today
High -- | Low -- °F
--% Chance of Precip.
Yesterday
High -- | Low -- °F
Precip. -- in
7:42 AM 5:28 PM
Waning Crescent, 14% visible
Pressure 30.24 in
Visibility 10.0 miles
Clouds Few 5000 ft
Scattered Clouds 7500 ft
Mostly Cloudy 9000 ft
Mostly Cloudy 15000 ft
Windchill 35 °F
Dew Point 32 °F
Humidity 76%
Rainfall 0.01 in
Snow Depth Not available.
UV 1 out of 12
Pollen .10 out of 12
Air Quality Not available.
Flu Activity Not available.
METAR KCHA 181453Z 01005KT 10SM FEW050 SCT075 BKN090 BKN150 04/00 A3023 RMK AO2 SLP238 60001 T00390000 55003

More Conditions Fewer Conditions

Pressure 30.24 in
Visibility 10.0 miles
Clouds Few 5000 ft
Scattered Clouds 7500 ft
Mostly Cloudy 9000 ft
Mostly Cloudy 15000 ft
Windchill 35 °F
Dew Point 32 °F
Humidity 76%
Rainfall 0.01 in
Snow Depth Not available.
UV 1 out of 12
Pollen .10 out of 12
Air Quality Not available.
Flu Activity Not available.
METAR KCHA 181453Z 01005KT 10SM FEW050 SCT075 BKN090 BKN150 04/00 A3023 RMK AO2 SLP238 60001 T00390000 55003

More Conditions Fewer Conditions

10-Day Weather Forecast

Almanac

Astronomy

Dec. 18, 2014 Rise Set
Actual Time
Civil Twilight
Nautical Twilight
Astronomical Twilight
Moon
Length of Visible Light
Length of Day
Tomorrow will be .
, % of the Moon is Illuminated

Today's Extremes

State Highs State Lows

Community

WunderPhotos

Upload Photos

1,778,947 photos uploaded!

WunderBlogs® & News

Nearby

Air Quality

  Air Quality AQ Index Pollutant
Not available.

Snow Depth

Station Depth Elevation

Earthquake Activity

City Distance Mag. Time & Date
Minimum magnitude displayed is 2.5.

Coastal Water Temperatures

Place Temperature

Nearby Weather Stations